LDSP/SPU METAR and TAF weather

Enter ICAO airport designator
Station Type Date Time Source
LDSP METAR 2020/04/03 06:00 UTC NOAA

LDSP 030600Z 36003KT 9999 BKN050 08/M00 Q1014


Station Type Date Time Source
LDSP Decoded METAR 2020/04/03 06:00 UTC NOAA

Split / Resnik, Croatia (LDSP) 43-32N 016-18E 21M
Apr 03, 2020 - 02:00 AM EDT / 2020.04.03 0600 UTC
Wind: from the N (360 degrees) at 3 MPH (3 KT):0
Visibility: greater than 7 mile(s):0
Sky conditions: mostly cloudy
Temperature: 46 F (8 C)
Dew Point: 32 F (0 C)
Relative Humidity: 56%
Pressure (altimeter): 29.94 in. Hg (1014 hPa)
ob: LDSP 030600Z 36003KT 9999 BKN050 08/M00 Q1014
cycle: 6

Station Type Date Time Source
LDSP TAF 2020/04/03 06:30 UTC NOAA

TAF LDSP 030525Z 0306/0406 VRB02KT CAVOK TX14/0312Z TN05/0400Z
BECMG 0310/0312 23010KT
BECMG 0316/0318 31007KT
BECMG 0404/0406 03012KT

Example: see airport list